• Join FlightAware (Why Join?)
  • Login
  • US Flag 
11:17PM EDT


 

Airport Tracker/Info


-or-


 

Live Flight TrackerFlight Track Log ✈ PDT4226 ✈ 01-Feb-2014 ✈ KPHL - KBGM

Flight Track Log - Related Links

Times and Time Zones

All times are in EST time to prevent confusion due to time zone crossing. See the PDT4226 flight status page for this flight to view local times or setup timezone preferences in your user account.

Time Position Orientation Groundspeed Altitude Reporting Facility
EST Latitude Longitude Course Direction KTS MPH feet Rate Location/Type
11:46AM 39.9000 -75.2333 311° West 131 151 500  Level Philadelphia TRACON
11:47AM 39.9000 -75.2667 270° West 131 151 1,400 1,380 Climbing Philadelphia TRACON
11:48AM 39.9167 -75.3167 294° West 165 190 2,600 1,080 Climbing Philadelphia TRACON
11:49AM 40.0477 -75.3978 323° Northwest  Level FlightAware Approximate
11:49AM 39.9333 -75.3667 294° West 169 194 3,700  Level Philadelphia TRACON
11:50AM 40.1085 -75.4503 303° West  Level FlightAware Approximate
11:50AM 39.9333 -75.4333 270° West 153 176 4,800  Level Philadelphia TRACON
11:51AM 40.1676 -75.5014 311° West  Level FlightAware Approximate
11:51AM 39.9333 -75.4833 270° West 152 175 5,700  Level Philadelphia TRACON
11:52AM 40.2227 -75.5590 311° West  Level FlightAware Approximate
11:52AM 39.9500 -75.5333 294° West 187 215 6,900  Level Philadelphia TRACON
11:53AM 40.0000 -75.5333 360° North 192 221 7,800 960 Climbing Philadelphia TRACON
11:54AM 40.0631 -75.5389 356° North 211 243 9,000 1,020 Climbing New York Center
11:55AM 40.1169 -75.5453 355° North 206 237 10,000 900 Climbing New York Center
11:56AM 40.1711 -75.5492 357° North 200 230 10,800 720 Climbing New York Center
11:57AM 40.2200 -75.5714 341° North 200 230 11,500 600 Climbing New York Center
11:58AM 40.2625 -75.6069 327° Northwest 187 215 12,000 240 Climbing New York Center
11:59AM 40.3236 -75.6414 337° Northwest 205 236 12,000 300 Level New York Center
12:00PM 40.3783 -75.6753 335° Northwest 214 246 12,700 780 Climbing New York Center
12:01PM 40.4269 -75.7086 332° Northwest 206 237 13,600 600 Climbing New York Center
12:02PM 40.4717 -75.7392 333° Northwest 198 228 14,000 180 Climbing New York Center
12:03PM 40.5369 -75.7711 340° North 210 242 14,000  Level New York Center
12:04PM 40.5981 -75.8031 338° Northwest 229 264 14,000  Level New York Center
12:05PM 40.6569 -75.8428 333° Northwest 236 272 14,000  Level New York Center
12:06PM 40.7133 -75.8853 330° Northwest 236 272 14,000  Level New York Center
12:07PM 40.7703 -75.9197 335° Northwest 241 277 14,000  Level New York Center
12:08PM 40.8350 -75.9631 333° Northwest 235 270 14,000  Level New York Center
12:09PM 40.8875 -76.0000 332° Northwest 230 265 14,000  Level New York Center
12:10PM 40.9567 -76.0408 336° Northwest 241 277 14,000  Level New York Center
12:11PM 41.0175 -76.0731 338° Northwest 241 277 14,000  Level New York Center
12:12PM 41.0783 -76.1111 335° Northwest 241 277 14,000  Level New York Center
12:13PM 41.1372 -76.1486 334° Northwest 236 272 14,000  Level New York Center
12:14PM 41.1897 -76.1831 334° Northwest 231 266 14,000  Level New York Center
12:15PM 41.2553 -76.2050 346° North 231 266 14,000  Level New York Center
12:16PM 41.3400 -76.1786 13° North 265 305 14,000  Level New York Center
12:17PM 41.4175 -76.1656 North 275 316 14,000  Level New York Center
12:18PM 41.4953 -76.1497 North 275 316 14,000 -300 Level New York Center
12:19PM 41.5689 -76.1361 North 280 322 13,400 -1,260 Descending New York Center
12:20PM 41.6550 -76.1236 North 298 343 11,500 -1,980 Descending New York Center
12:21PM 41.7433 -76.1028 10° North 290 334 9,500 -1,560 Descending New York Center
12:22PM 41.8128 -76.0861 10° North 265 305 8,400 -1,320 Descending New York Center
12:23PM 41.8861 -76.0753 North 258 297 6,900 -1,500 Descending New York Center
12:24PM 41.9558 -76.0503 15° North 274 315 5,500 -1,200 Descending New York Center
12:25PM 42.0275 -76.0336 10° North 269 310 4,600 -780 Descending New York Center
12:26PM 42.0842 -76.0186 11° North 234 269 4,000 -600 Descending New York Center
12:27PM 42.1342 -76.0197 359° North 199 229 3,500 -420 Descending New York Center
12:28PM 42.1722 -76.0564 324° Northwest 166 191 3,200 -360 Descending New York Center
12:29PM 42.2178 -76.0600 357° North 166 191 2,800 -420 Descending New York Center
12:30PM 42.2400 -76.0256 49° Northeast 132 152 2,400 -360 Descending New York Center
12:31PM 42.2458 -75.9894 78° East 115 132 2,100 -300 Descending New York Center